createdAt,value
2023-01-04T00:01:40.579Z,4.03
2023-01-04T00:06:43.364Z,3.28
2023-01-04T00:11:46.082Z,3.95
2023-01-04T00:16:48.984Z,4.53
2023-01-04T00:21:51.785Z,4.25
2023-01-04T00:26:54.459Z,4.78
2023-01-04T00:31:58.119Z,3.83
2023-01-04T00:37:00.862Z,4.45
2023-01-04T00:42:06.169Z,4.90
2023-01-04T00:47:08.925Z,4.28
2023-01-04T00:52:11.729Z,4.20
2023-01-04T00:57:14.601Z,5.32
2023-01-04T01:02:17.719Z,3.67
2023-01-04T01:07:20.648Z,4.20
2023-01-04T01:12:23.409Z,3.58
2023-01-04T01:17:26.048Z,4.55
2023-01-04T01:22:28.715Z,5.00
2023-01-04T01:27:31.390Z,5.07
2023-01-04T01:32:34.123Z,5.15
2023-01-04T01:37:36.797Z,5.93
2023-01-04T01:42:39.569Z,5.57
2023-01-04T01:47:46.648Z,6.65
2023-01-04T01:52:50.163Z,5.40
2023-01-04T01:57:54.115Z,6.37
2023-01-04T02:03:19.622Z,6.68
2023-01-04T02:08:25.197Z,6.03
2023-01-04T02:13:49.297Z,6.43
2023-01-04T02:19:49.125Z,6.00
2023-01-04T02:25:09.943Z,5.18
2023-01-04T02:30:43.760Z,7.18
2023-01-04T02:36:00.145Z,7.00
2023-01-04T02:41:11.594Z,7.22
2023-01-04T02:46:27.413Z,8.27
2023-01-04T02:51:33.580Z,8.48
2023-01-04T02:57:02.681Z,9.00
2023-01-04T03:02:52.578Z,8.40
2023-01-04T03:08:01.937Z,8.55
2023-01-04T03:13:28.260Z,10.70
2023-01-04T03:18:35.116Z,10.15
2023-01-04T03:23:58.119Z,10.63
2023-01-04T03:29:25.557Z,9.88
2023-01-04T03:34:46.853Z,11.13
2023-01-04T03:40:42.371Z,12.95
2023-01-04T03:46:07.714Z,11.07
2023-01-04T03:51:26.404Z,11.23
2023-01-04T03:56:30.161Z,11.70
2023-01-04T04:01:32.969Z,11.63
2023-01-04T04:06:54.182Z,11.45
2023-01-04T04:11:56.979Z,10.88
2023-01-04T04:17:01.212Z,10.07
2023-01-04T04:22:04.254Z,13.25
2023-01-04T04:27:06.964Z,11.50
2023-01-04T04:32:09.639Z,10.05
2023-01-04T04:37:12.542Z,12.25
2023-01-04T04:42:15.215Z,11.90
2023-01-04T04:47:17.895Z,12.07
2023-01-04T04:52:20.655Z,11.20
2023-01-04T04:57:23.372Z,15.02
2023-01-04T05:02:26.485Z,11.90
2023-01-04T05:07:29.365Z,13.48
2023-01-04T05:12:55.836Z,12.73
2023-01-04T05:18:00.495Z,15.93
2023-01-04T05:23:03.250Z,13.93
2023-01-04T05:28:06.869Z,12.48
2023-01-04T05:33:10.202Z,12.63
2023-01-04T05:38:13.464Z,11.82
2023-01-04T05:43:16.930Z,14.15
2023-01-04T05:48:19.907Z,12.65
2023-01-04T05:53:22.652Z,14.35
2023-01-04T05:58:25.545Z,10.98
2023-01-04T06:03:28.588Z,13.68
2023-01-04T06:08:31.396Z,13.98
2023-01-04T06:13:34.237Z,14.02
2023-01-04T06:18:37.117Z,11.50
2023-01-04T06:23:39.836Z,13.90
2023-01-04T06:28:42.526Z,13.73
2023-01-04T06:33:45.257Z,14.32
2023-01-04T06:38:49.052Z,16.92
2023-01-04T06:43:51.750Z,13.38
2023-01-04T06:48:54.563Z,13.65
2023-01-04T06:53:57.333Z,12.05
2023-01-04T06:59:00.290Z,13.15
2023-01-04T07:04:03.331Z,12.55
2023-01-04T07:09:06.082Z,11.65
2023-01-04T07:14:08.825Z,10.13
2023-01-04T07:19:11.482Z,11.07
2023-01-04T07:24:14.219Z,11.38
2023-01-04T07:29:19.585Z,10.82
2023-01-04T07:34:24.622Z,10.52
2023-01-04T07:39:27.346Z,13.18
2023-01-04T07:44:30.074Z,12.55
2023-01-04T07:49:32.808Z,11.50
2023-01-04T07:54:35.548Z,11.57
2023-01-04T07:59:38.243Z,10.25
2023-01-04T08:04:41.117Z,10.57
2023-01-04T08:09:43.934Z,10.82
2023-01-04T08:14:46.653Z,9.57
2023-01-04T08:19:49.335Z,10.20
2023-01-04T08:24:52.007Z,11.18
2023-01-04T08:29:54.689Z,9.68
2023-01-04T08:34:57.439Z,11.05
2023-01-04T08:40:00.160Z,11.10
2023-01-04T08:45:02.932Z,10.50
2023-01-04T08:50:10.780Z,10.90
2023-01-04T08:55:16.794Z,9.15
2023-01-04T09:00:22.199Z,10.38
2023-01-04T09:05:26.316Z,9.68
2023-01-04T09:10:29.037Z,9.87
2023-01-04T09:15:33.172Z,9.00
2023-01-04T09:20:35.822Z,8.13
2023-01-04T09:25:41.682Z,8.73
2023-01-04T09:30:44.376Z,7.30
2023-01-04T09:35:47.028Z,7.93
2023-01-04T09:40:54.926Z,7.93
2023-01-04T09:46:02.071Z,8.18
2023-01-04T09:51:06.682Z,7.85
2023-01-04T09:56:24.733Z,8.52
2023-01-04T10:01:49.835Z,6.72
2023-01-04T10:06:53.341Z,6.88
2023-01-04T10:12:26.732Z,8.57
2023-01-04T10:23:32.307Z,7.30
2023-01-04T10:28:57.591Z,7.07
2023-01-04T10:34:29.599Z,6.50
2023-01-04T10:39:34.230Z,5.07
2023-01-04T10:44:50.958Z,6.78
2023-01-04T10:49:59.689Z,4.65
2023-01-04T10:55:07.265Z,5.07
2023-01-04T11:00:20.177Z,4.25
2023-01-04T11:05:43.270Z,4.57
2023-01-04T11:10:55.364Z,3.95
2023-01-04T11:15:58.532Z,4.50
2023-01-04T11:21:04.259Z,5.03
2023-01-04T11:26:16.742Z,5.13
2023-01-04T11:31:31.353Z,5.03
